sensor_id;sensor_type;location;lat;lon;timestamp;temperature;humidity
26053;DHT22;13826;51.186;4.450;2023-02-01T00:00:53;6.10;99.90
26053;DHT22;13826;51.186;4.450;2023-02-01T00:03:18;6.10;99.90
26053;DHT22;13826;51.186;4.450;2023-02-01T00:05:44;6.20;99.90
26053;DHT22;13826;51.186;4.450;2023-02-01T00:08:09;6.30;99.90
26053;DHT22;13826;51.186;4.450;2023-02-01T00:10:35;6.40;99.90
26053;DHT22;13826;51.186;4.450;2023-02-01T00:13:00;6.40;99.90
26053;DHT22;13826;51.186;4.450;2023-02-01T00:15:26;6.40;99.90
26053;DHT22;13826;51.186;4.450;2023-02-01T00:17:55;6.40;99.90
26053;DHT22;13826;51.186;4.450;2023-02-01T00:20:20;6.50;99.90
26053;DHT22;13826;51.186;4.450;2023-02-01T00:22:46;6.50;99.90
26053;DHT22;13826;51.186;4.450;2023-02-01T00:25:11;6.40;99.90
26053;DHT22;13826;51.186;4.450;2023-02-01T00:27:37;6.40;99.90
26053;DHT22;13826;51.186;4.450;2023-02-01T00:30:02;6.30;99.90
26053;DHT22;13826;51.186;4.450;2023-02-01T00:32:28;6.20;99.90
26053;DHT22;13826;51.186;4.450;2023-02-01T00:34:54;6.10;99.90
26053;DHT22;13826;51.186;4.450;2023-02-01T00:37:19;6.00;99.90
26053;DHT22;13826;51.186;4.450;2023-02-01T00:39:45;5.90;99.90
26053;DHT22;13826;51.186;4.450;2023-02-01T00:42:10;5.90;99.90
26053;DHT22;13826;51.186;4.450;2023-02-01T00:44:36;5.90;99.90
26053;DHT22;13826;51.186;4.450;2023-02-01T00:47:01;5.90;99.90
26053;DHT22;13826;51.186;4.450;2023-02-01T00:49:27;5.90;99.90
26053;DHT22;13826;51.186;4.450;2023-02-01T00:51:53;5.80;99.90
26053;DHT22;13826;51.186;4.450;2023-02-01T00:54:19;5.80;99.90
26053;DHT22;13826;51.186;4.450;2023-02-01T00:56:44;5.80;99.90
26053;DHT22;13826;51.186;4.450;2023-02-01T00:59:10;5.80;99.90
26053;DHT22;13826;51.186;4.450;2023-02-01T01:01:36;5.80;99.90
26053;DHT22;13826;51.186;4.450;2023-02-01T01:04:01;5.80;99.90
26053;DHT22;13826;51.186;4.450;2023-02-01T01:06:31;5.70;99.90
26053;DHT22;13826;51.186;4.450;2023-02-01T01:08:57;5.70;99.90
26053;DHT22;13826;51.186;4.450;2023-02-01T01:11:25;5.70;99.90
26053;DHT22;13826;51.186;4.450;2023-02-01T01:13:51;5.70;99.90
26053;DHT22;13826;51.186;4.450;2023-02-01T01:16:17;5.70;99.90
26053;DHT22;13826;51.186;4.450;2023-02-01T01:18:43;5.70;99.90
26053;DHT22;13826;51.186;4.450;2023-02-01T01:21:09;5.70;99.90
26053;DHT22;13826;51.186;4.450;2023-02-01T01:23:35;5.70;99.90
26053;DHT22;13826;51.186;4.450;2023-02-01T01:26:04;5.70;99.90
26053;DHT22;13826;51.186;4.450;2023-02-01T01:28:30;5.70;99.90
26053;DHT22;13826;51.186;4.450;2023-02-01T01:30:56;5.70;99.90
26053;DHT22;13826;51.186;4.450;2023-02-01T01:33:21;5.70;99.90
26053;DHT22;13826;51.186;4.450;2023-02-01T01:35:47;5.80;99.90
26053;DHT22;13826;51.186;4.450;2023-02-01T01:38:12;5.80;99.90
26053;DHT22;13826;51.186;4.450;2023-02-01T01:40:38;5.70;99.90
26053;DHT22;13826;51.186;4.450;2023-02-01T01:43:09;5.70;99.90
26053;DHT22;13826;51.186;4.450;2023-02-01T01:45:37;5.70;99.90
26053;DHT22;13826;51.186;4.450;2023-02-01T01:48:16;5.60;99.90
26053;DHT22;13826;51.186;4.450;2023-02-01T01:51:25;5.60;99.90
26053;DHT22;13826;51.186;4.450;2023-02-01T01:53:33;5.60;99.90
26053;DHT22;13826;51.186;4.450;2023-02-01T01:56:01;5.50;99.90
26053;DHT22;13826;51.186;4.450;2023-02-01T01:58:27;5.50;99.90
26053;DHT22;13826;51.186;4.450;2023-02-01T02:00:54;5.60;99.90
26053;DHT22;13826;51.186;4.450;2023-02-01T02:03:21;5.50;99.90
26053;DHT22;13826;51.186;4.450;2023-02-01T02:05:48;5.50;99.90
26053;DHT22;13826;51.186;4.450;2023-02-01T02:08:14;5.50;99.90
26053;DHT22;13826;51.186;4.450;2023-02-01T02:10:40;5.50;99.90
26053;DHT22;13826;51.186;4.450;2023-02-01T02:13:24;5.50;99.90
26053;DHT22;13826;51.186;4.450;2023-02-01T02:15:58;5.50;99.90
26053;DHT22;13826;51.186;4.450;2023-02-01T02:23:38;5.50;99.90
26053;DHT22;13826;51.186;4.450;2023-02-01T02:31:34;5.50;99.90
26053;DHT22;13826;51.186;4.450;2023-02-01T02:34:48;5.50;99.90
26053;DHT22;13826;51.186;4.450;2023-02-01T02:39:36;5.50;99.90
26053;DHT22;13826;51.186;4.450;2023-02-01T02:44:55;5.50;99.90
26053;DHT22;13826;51.186;4.450;2023-02-01T02:50:43;5.50;99.90
26053;DHT22;13826;51.186;4.450;2023-02-01T02:53:36;5.50;99.90
26053;DHT22;13826;51.186;4.450;2023-02-01T02:56:22;5.40;99.90
26053;DHT22;13826;51.186;4.450;2023-02-01T02:59:07;5.50;99.90
26053;DHT22;13826;51.186;4.450;2023-02-01T03:01:52;5.50;99.90
26053;DHT22;13826;51.186;4.450;2023-02-01T03:04:37;5.40;99.90
26053;DHT22;13826;51.186;4.450;2023-02-01T03:09:54;5.40;99.90
26053;DHT22;13826;51.186;4.450;2023-02-01T03:12:20;5.40;99.90
26053;DHT22;13826;51.186;4.450;2023-02-01T03:15:06;5.40;99.90
26053;DHT22;13826;51.186;4.450;2023-02-01T03:17:34;5.40;99.90
26053;DHT22;13826;51.186;4.450;2023-02-01T03:20:01;5.40;99.90
26053;DHT22;13826;51.186;4.450;2023-02-01T03:22:28;5.40;99.90
26053;DHT22;13826;51.186;4.450;2023-02-01T03:25:04;5.40;99.90
26053;DHT22;13826;51.186;4.450;2023-02-01T03:27:36;5.40;99.90
26053;DHT22;13826;51.186;4.450;2023-02-01T03:32:41;5.40;99.90
26053;DHT22;13826;51.186;4.450;2023-02-01T03:38:21;5.20;99.90
26053;DHT22;13826;51.186;4.450;2023-02-01T03:40:46;5.10;99.90
26053;DHT22;13826;51.186;4.450;2023-02-01T03:43:14;5.10;99.90
26053;DHT22;13826;51.186;4.450;2023-02-01T03:45:46;5.20;99.90
26053;DHT22;13826;51.186;4.450;2023-02-01T03:48:13;5.20;99.90
26053;DHT22;13826;51.186;4.450;2023-02-01T03:50:42;5.20;99.90
26053;DHT22;13826;51.186;4.450;2023-02-01T03:53:09;5.10;99.90
26053;DHT22;13826;51.186;4.450;2023-02-01T03:55:36;5.00;99.90
26053;DHT22;13826;51.186;4.450;2023-02-01T04:00:30;5.00;99.90
26053;DHT22;13826;51.186;4.450;2023-02-01T04:02:56;4.90;99.90
26053;DHT22;13826;51.186;4.450;2023-02-01T04:05:22;5.00;99.90
26053;DHT22;13826;51.186;4.450;2023-02-01T04:07:48;5.00;99.90
26053;DHT22;13826;51.186;4.450;2023-02-01T04:10:14;5.00;99.90
26053;DHT22;13826;51.186;4.450;2023-02-01T04:12:39;5.00;99.90
26053;DHT22;13826;51.186;4.450;2023-02-01T04:15:05;5.00;99.90
26053;DHT22;13826;51.186;4.450;2023-02-01T04:17:31;5.00;99.90
26053;DHT22;13826;51.186;4.450;2023-02-01T04:19:56;5.10;99.90
26053;DHT22;13826;51.186;4.450;2023-02-01T04:22:22;5.00;99.90
26053;DHT22;13826;51.186;4.450;2023-02-01T04:24:47;5.00;99.90
26053;DHT22;13826;51.186;4.450;2023-02-01T04:27:13;5.10;99.90
26053;DHT22;13826;51.186;4.450;2023-02-01T04:29:39;5.10;99.90
26053;DHT22;13826;51.186;4.450;2023-02-01T04:32:04;5.00;99.90
26053;DHT22;13826;51.186;4.450;2023-02-01T04:34:30;5.10;99.90
26053;DHT22;13826;51.186;4.450;2023-02-01T04:36:56;5.00;99.90
26053;DHT22;13826;51.186;4.450;2023-02-01T04:39:22;5.00;99.90
26053;DHT22;13826;51.186;4.450;2023-02-01T04:41:47;5.00;99.90
26053;DHT22;13826;51.186;4.450;2023-02-01T04:44:13;5.10;99.90
26053;DHT22;13826;51.186;4.450;2023-02-01T04:46:39;5.10;99.90
26053;DHT22;13826;51.186;4.450;2023-02-01T04:49:05;5.10;99.90
26053;DHT22;13826;51.186;4.450;2023-02-01T04:51:31;5.00;99.90
26053;DHT22;13826;51.186;4.450;2023-02-01T04:53:56;4.90;99.90
26053;DHT22;13826;51.186;4.450;2023-02-01T04:56:22;4.90;99.90
26053;DHT22;13826;51.186;4.450;2023-02-01T04:58:47;4.90;99.90
26053;DHT22;13826;51.186;4.450;2023-02-01T05:01:13;4.90;99.90
26053;DHT22;13826;51.186;4.450;2023-02-01T05:03:38;4.90;99.90
26053;DHT22;13826;51.186;4.450;2023-02-01T05:06:04;5.00;99.90
26053;DHT22;13826;51.186;4.450;2023-02-01T05:08:30;4.90;99.90
26053;DHT22;13826;51.186;4.450;2023-02-01T05:10:55;4.90;99.90
26053;DHT22;13826;51.186;4.450;2023-02-01T05:13:21;4.90;99.90
26053;DHT22;13826;51.186;4.450;2023-02-01T05:16:05;4.90;99.90
26053;DHT22;13826;51.186;4.450;2023-02-01T05:18:30;4.90;99.90
26053;DHT22;13826;51.186;4.450;2023-02-01T05:20:56;4.90;99.90
26053;DHT22;13826;51.186;4.450;2023-02-01T05:23:21;4.90;99.90
26053;DHT22;13826;51.186;4.450;2023-02-01T05:25:47;4.90;99.90
26053;DHT22;13826;51.186;4.450;2023-02-01T05:28:12;4.90;99.90
26053;DHT22;13826;51.186;4.450;2023-02-01T05:30:38;4.90;99.90
26053;DHT22;13826;51.186;4.450;2023-02-01T05:33:04;4.90;99.90
26053;DHT22;13826;51.186;4.450;2023-02-01T05:35:30;4.90;99.90
26053;DHT22;13826;51.186;4.450;2023-02-01T05:37:55;4.90;99.90
26053;DHT22;13826;51.186;4.450;2023-02-01T05:40:21;5.00;99.90
26053;DHT22;13826;51.186;4.450;2023-02-01T05:42:46;4.90;99.90
26053;DHT22;13826;51.186;4.450;2023-02-01T05:45:12;5.00;99.90
26053;DHT22;13826;51.186;4.450;2023-02-01T05:47:37;5.00;99.90
26053;DHT22;13826;51.186;4.450;2023-02-01T05:50:03;5.00;99.90
26053;DHT22;13826;51.186;4.450;2023-02-01T05:52:29;4.90;99.90
26053;DHT22;13826;51.186;4.450;2023-02-01T05:54:55;4.90;99.90
26053;DHT22;13826;51.186;4.450;2023-02-01T05:57:20;4.90;99.90
26053;DHT22;13826;51.186;4.450;2023-02-01T05:59:46;5.00;99.90
26053;DHT22;13826;51.186;4.450;2023-02-01T06:02:12;5.00;99.90
26053;DHT22;13826;51.186;4.450;2023-02-01T06:04:38;4.90;99.90
26053;DHT22;13826;51.186;4.450;2023-02-01T06:07:05;4.90;99.90
26053;DHT22;13826;51.186;4.450;2023-02-01T06:09:32;4.90;99.90
26053;DHT22;13826;51.186;4.450;2023-02-01T06:11:57;4.90;99.90
26053;DHT22;13826;51.186;4.450;2023-02-01T06:14:23;4.90;99.90
26053;DHT22;13826;51.186;4.450;2023-02-01T06:16:49;4.90;99.90
26053;DHT22;13826;51.186;4.450;2023-02-01T06:19:15;5.00;99.90
26053;DHT22;13826;51.186;4.450;2023-02-01T06:21:40;5.10;99.90
26053;DHT22;13826;51.186;4.450;2023-02-01T06:24:06;5.00;99.90
26053;DHT22;13826;51.186;4.450;2023-02-01T06:26:32;5.00;99.90
26053;DHT22;13826;51.186;4.450;2023-02-01T06:28:58;5.00;99.90
26053;DHT22;13826;51.186;4.450;2023-02-01T21:39:01;9.10;98.90
26053;DHT22;13826;51.186;4.450;2023-02-01T21:41:31;9.10;98.20
26053;DHT22;13826;51.186;4.450;2023-02-01T21:44:15;9.00;99.00
26053;DHT22;13826;51.186;4.450;2023-02-01T21:46:41;9.00;98.30
26053;DHT22;13826;51.186;4.450;2023-02-01T21:49:07;9.00;98.70
26053;DHT22;13826;51.186;4.450;2023-02-01T21:51:33;9.00;98.20
26053;DHT22;13826;51.186;4.450;2023-02-01T21:53:59;9.00;98.90
26053;DHT22;13826;51.186;4.450;2023-02-01T21:56:25;8.90;98.40
26053;DHT22;13826;51.186;4.450;2023-02-01T21:58:51;9.00;98.00
26053;DHT22;13826;51.186;4.450;2023-02-01T22:01:16;9.00;97.60
26053;DHT22;13826;51.186;4.450;2023-02-01T22:03:42;9.00;97.50
26053;DHT22;13826;51.186;4.450;2023-02-01T22:06:07;9.00;97.50
26053;DHT22;13826;51.186;4.450;2023-02-01T22:08:34;9.00;97.50
26053;DHT22;13826;51.186;4.450;2023-02-01T22:11:00;9.10;97.10
26053;DHT22;13826;51.186;4.450;2023-02-01T22:13:26;9.10;95.50
26053;DHT22;13826;51.186;4.450;2023-02-01T22:15:51;9.20;95.80
26053;DHT22;13826;51.186;4.450;2023-02-01T22:18:17;9.20;95.50
26053;DHT22;13826;51.186;4.450;2023-02-01T22:20:43;9.20;95.40
26053;DHT22;13826;51.186;4.450;2023-02-01T22:23:09;9.20;95.00
26053;DHT22;13826;51.186;4.450;2023-02-01T22:25:34;9.20;95.70
26053;DHT22;13826;51.186;4.450;2023-02-01T22:28:00;9.20;95.30
26053;DHT22;13826;51.186;4.450;2023-02-01T22:30:25;9.20;95.20
26053;DHT22;13826;51.186;4.450;2023-02-01T22:32:51;9.20;95.30
26053;DHT22;13826;51.186;4.450;2023-02-01T22:35:17;9.20;95.50
26053;DHT22;13826;51.186;4.450;2023-02-01T22:37:42;9.20;95.20
26053;DHT22;13826;51.186;4.450;2023-02-01T22:40:09;9.20;95.30
26053;DHT22;13826;51.186;4.450;2023-02-01T22:42:34;9.20;96.00
26053;DHT22;13826;51.186;4.450;2023-02-01T22:45:00;9.20;95.40
26053;DHT22;13826;51.186;4.450;2023-02-01T22:47:26;9.20;95.80
26053;DHT22;13826;51.186;4.450;2023-02-01T22:49:52;9.20;96.10
26053;DHT22;13826;51.186;4.450;2023-02-01T22:52:18;9.20;96.30
26053;DHT22;13826;51.186;4.450;2023-02-01T22:54:43;9.20;96.20
26053;DHT22;13826;51.186;4.450;2023-02-01T22:57:09;9.20;96.70
26053;DHT22;13826;51.186;4.450;2023-02-01T22:59:35;9.20;96.70
26053;DHT22;13826;51.186;4.450;2023-02-01T23:02:00;9.20;96.80
26053;DHT22;13826;51.186;4.450;2023-02-01T23:04:26;9.20;97.80
26053;DHT22;13826;51.186;4.450;2023-02-01T23:06:51;9.10;99.10
26053;DHT22;13826;51.186;4.450;2023-02-01T23:09:18;9.10;99.40
26053;DHT22;13826;51.186;4.450;2023-02-01T23:11:44;9.20;98.20
26053;DHT22;13826;51.186;4.450;2023-02-01T23:14:10;9.20;98.00
26053;DHT22;13826;51.186;4.450;2023-02-01T23:16:36;9.20;97.90
26053;DHT22;13826;51.186;4.450;2023-02-01T23:19:01;9.30;96.20
26053;DHT22;13826;51.186;4.450;2023-02-01T23:21:27;9.20;97.20
26053;DHT22;13826;51.186;4.450;2023-02-01T23:23:55;9.20;97.70
26053;DHT22;13826;51.186;4.450;2023-02-01T23:26:22;9.10;98.50
26053;DHT22;13826;51.186;4.450;2023-02-01T23:28:48;9.20;97.90
26053;DHT22;13826;51.186;4.450;2023-02-01T23:31:15;9.10;97.30
26053;DHT22;13826;51.186;4.450;2023-02-01T23:33:42;9.10;97.90
26053;DHT22;13826;51.186;4.450;2023-02-01T23:36:08;9.10;98.30
26053;DHT22;13826;51.186;4.450;2023-02-01T23:38:34;9.20;98.10
26053;DHT22;13826;51.186;4.450;2023-02-01T23:41:01;9.20;96.40
26053;DHT22;13826;51.186;4.450;2023-02-01T23:43:27;9.20;96.90
26053;DHT22;13826;51.186;4.450;2023-02-01T23:46:11;9.20;96.70
26053;DHT22;13826;51.186;4.450;2023-02-01T23:48:37;9.30;95.90
26053;DHT22;13826;51.186;4.450;2023-02-01T23:51:03;9.30;95.70
26053;DHT22;13826;51.186;4.450;2023-02-01T23:53:29;9.20;96.30
26053;DHT22;13826;51.186;4.450;2023-02-01T23:55:54;9.10;97.40
26053;DHT22;13826;51.186;4.450;2023-02-01T23:58:20;9.10;97.30
